Time;durP1;ratioP1;P1;durP2;ratioP2;P2;SDS_P1;SDS_P2;PMS_P1;PMS_P2;Temp;Humidity;BMP_temperature;BMP_pressure;BME280_temperature;BME280_humidity;BME280_pressure;Samples;Min_cycle;Max_cycle;Signal;HPM_P1;HPM_P2
2023/10/23 00:02:08;;;;;;;7.80;2.58;;;10.50;82.50;;;;;;5015401;28;20060;-91
2023/10/23 00:04:35;;;;;;;6.78;2.17;;;10.50;82.30;;;;;;5015181;28;20046;-91
2023/10/23 00:07:03;;;;;;;7.30;2.47;;;10.60;81.80;;;;;;5024856;28;20049;-90
2023/10/23 00:09:30;;;;;;;6.47;2.33;;;10.60;81.50;;;;;;5011233;28;20046;-91
2023/10/23 00:11:57;;;;;;;6.53;2.22;;;10.60;81.60;;;;;;4999022;28;20084;-91
2023/10/23 00:14:24;;;;;;;7.60;2.30;;;10.50;81.80;;;;;;5015267;28;20038;-91
2023/10/23 00:16:52;;;;;;;7.30;2.75;;;10.50;82.20;;;;;;5015407;28;20046;-91
2023/10/23 00:19:19;;;;;;;9.63;4.03;;;10.40;82.50;;;;;;4998700;28;20053;-92
2023/10/23 00:21:46;;;;;;;10.60;2.93;;;10.40;82.60;;;;;;4998832;28;20416;-91
2023/10/23 00:24:13;;;;;;;7.35;3.03;;;10.30;82.70;;;;;;5015137;28;20112;-92
2023/10/23 00:26:40;;;;;;;10.02;3.80;;;10.20;82.70;;;;;;5014729;28;20054;-91
2023/10/23 00:29:08;;;;;;;7.72;3.05;;;10.20;82.90;;;;;;5015096;28;20046;-91
2023/10/23 00:31:35;;;;;;;9.00;3.50;;;10.10;83.00;;;;;;5014918;28;20507;-92
2023/10/23 00:34:04;;;;;;;10.70;3.77;;;10.10;82.80;;;;;;4998721;28;20038;-91
2023/10/23 00:36:32;;;;;;;8.55;3.38;;;10.10;82.80;;;;;;4998777;28;20053;-91
2023/10/23 00:38:59;;;;;;;9.15;3.65;;;10.10;82.70;;;;;;5014823;28;20042;-91
2023/10/23 00:41:26;;;;;;;7.85;3.78;;;10.20;82.60;;;;;;5014798;28;20050;-91
2023/10/23 00:43:53;;;;;;;8.23;3.65;;;10.10;82.60;;;;;;4998437;28;20048;-90
2023/10/23 00:46:20;;;;;;;8.53;3.47;;;10.00;82.80;;;;;;5014600;28;20084;-91
2023/10/23 00:48:48;;;;;;;8.07;3.53;;;10.00;82.90;;;;;;4998548;28;20141;-90
2023/10/23 00:51:16;;;;;;;9.35;3.88;;;10.00;83.20;;;;;;5016304;28;20100;-90
2023/10/23 00:53:44;;;;;;;7.72;3.38;;;10.00;83.20;;;;;;5008587;28;20038;-90
2023/10/23 00:56:12;;;;;;;9.10;4.07;;;10.00;83.30;;;;;;5007649;28;20041;-90
2023/10/23 00:58:42;;;;;;;9.77;3.97;;;10.00;83.30;;;;;;5018174;28;20034;-90
2023/10/23 01:01:11;;;;;;;9.50;4.07;;;9.90;83.50;;;;;;5014039;28;20459;-90
2023/10/23 01:03:43;;;;;;;7.65;3.80;;;9.80;83.90;;;;;;5026125;28;20053;-90
2023/10/23 01:06:12;;;;;;;9.82;3.78;;;9.80;83.90;;;;;;5018691;28;20054;-89
2023/10/23 01:08:43;;;;;;;9.30;3.65;;;9.90;83.90;;;;;;5033026;28;20045;-89
2023/10/23 01:11:10;;;;;;;7.47;3.30;;;9.90;83.80;;;;;;5009321;28;20141;-89
2023/10/23 01:13:38;;;;;;;9.93;3.50;;;9.90;83.80;;;;;;5014645;28;20046;-89
2023/10/23 01:16:05;;;;;;;8.02;3.42;;;9.90;83.80;;;;;;5033778;28;20091;-90
2023/10/23 01:18:32;;;;;;;9.80;3.83;;;9.90;83.90;;;;;;5032269;28;20038;-90
2023/10/23 01:21:00;;;;;;;9.10;3.45;;;9.80;84.00;;;;;;5033834;28;20439;-90
2023/10/23 01:23:34;;;;;;;7.33;3.47;;;9.80;84.10;;;;;;5008876;28;20038;-89
2023/10/23 01:26:01;;;;;;;7.43;3.30;;;9.80;84.10;;;;;;5016617;28;20068;-90
2023/10/23 01:28:29;;;;;;;10.57;2.90;;;9.80;84.10;;;;;;5010871;28;20041;-90
2023/10/23 01:30:56;;;;;;;7.70;3.28;;;9.90;83.80;;;;;;5016325;28;20083;-90
2023/10/23 01:33:23;;;;;;;8.90;3.53;;;10.00;83.50;;;;;;5017024;28;20099;-90
2023/10/23 01:35:50;;;;;;;5.73;2.67;;;10.00;83.20;;;;;;5017287;28;20041;-90
2023/10/23 01:38:18;;;;;;;7.65;2.83;;;10.00;83.20;;;;;;5016871;28;20514;-90
2023/10/23 01:40:45;;;;;;;8.73;3.17;;;10.00;83.20;;;;;;4999720;28;20038;-90
2023/10/23 01:43:12;;;;;;;7.63;3.13;;;10.00;83.10;;;;;;4997618;28;20053;-90
2023/10/23 01:45:39;;;;;;;8.23;3.33;;;10.00;83.10;;;;;;5013812;28;20050;-90
2023/10/23 01:48:07;;;;;;;7.67;3.20;;;9.90;83.00;;;;;;4997486;28;20384;-90
2023/10/23 01:50:34;;;;;;;6.90;2.95;;;9.80;83.20;;;;;;5000419;28;20517;-90
2023/10/23 01:53:01;;;;;;;6.97;3.08;;;9.80;83.40;;;;;;5017022;28;20048;-90
2023/10/23 01:55:28;;;;;;;6.13;2.67;;;9.80;83.40;;;;;;5008329;28;20073;-90
2023/10/23 01:57:59;;;;;;;7.70;2.90;;;9.80;83.30;;;;;;4997213;28;20061;-91
2023/10/23 02:03:24;;;;;;;8.32;3.33;;;9.80;83.30;;;;;;5225031;23;20037;-90
2023/10/23 02:05:56;;;;;;;9.85;3.42;;;9.80;83.40;;;;;;4982886;28;20046;-90
2023/10/23 02:08:23;;;;;;;9.65;3.30;;;9.70;83.50;;;;;;4964681;28;20066;-89
2023/10/23 02:10:51;;;;;;;8.50;3.10;;;9.60;83.80;;;;;;4972380;28;20053;-89
2023/10/23 02:13:19;;;;;;;7.90;3.17;;;9.50;83.90;;;;;;4977683;28;20403;-90
2023/10/23 02:15:47;;;;;;;7.75;3.47;;;9.50;84.20;;;;;;4994374;28;20407;-90
2023/10/23 02:18:15;;;;;;;8.73;3.58;;;9.50;84.20;;;;;;4970412;28;20038;-90
2023/10/23 02:20:43;;;;;;;7.72;2.97;;;9.50;84.30;;;;;;4995927;28;20087;-90
2023/10/23 02:23:10;;;;;;;8.70;3.40;;;9.50;84.20;;;;;;4991064;28;20074;-89
2023/10/23 02:25:37;;;;;;;8.20;3.17;;;9.50;84.10;;;;;;4975879;28;20058;-90
2023/10/23 02:28:04;;;;;;;8.27;3.50;;;9.50;84.20;;;;;;4977930;28;20060;-90
2023/10/23 02:30:31;;;;;;;7.88;3.35;;;9.50;84.40;;;;;;4993057;28;20046;-90
2023/10/23 02:32:59;;;;;;;8.95;3.60;;;9.50;84.50;;;;;;4985251;28;20043;-89
2023/10/23 02:35:32;;;;;;;8.02;3.53;;;9.50;84.50;;;;;;4976987;28;20113;-90
2023/10/23 02:38:00;;;;;;;8.57;3.40;;;9.50;84.60;;;;;;4971849;28;20038;-89
2023/10/23 02:40:27;;;;;;;7.47;3.30;;;9.50;84.70;;;;;;4980165;28;20061;-89
2023/10/23 02:42:54;;;;;;;8.52;3.50;;;9.50;84.50;;;;;;4986316;28;20057;-89
2023/10/23 02:45:21;;;;;;;7.57;3.10;;;9.50;84.70;;;;;;4984468;28;20129;-89
2023/10/23 02:47:48;;;;;;;8.63;3.80;;;9.50;84.60;;;;;;4982624;28;20074;-90
2023/10/23 02:50:15;;;;;;;9.23;4.33;;;9.40;84.60;;;;;;4969559;28;20060;-88
2023/10/23 02:52:42;;;;;;;9.00;3.53;;;9.40;84.80;;;;;;4991356;28;20066;-88
2023/10/23 02:55:09;;;;;;;8.40;3.80;;;9.40;84.70;;;;;;4985685;28;20043;-88
2023/10/23 02:57:38;;;;;;;8.48;3.28;;;9.40;84.80;;;;;;4979730;28;20137;-88
2023/10/23 03:00:05;;;;;;;7.82;3.58;;;9.50;84.80;;;;;;4984984;28;20149;-89
2023/10/23 03:02:33;;;;;;;8.70;3.20;;;9.40;84.70;;;;;;4991484;28;20133;-89
2023/10/23 03:05:00;;;;;;;9.13;3.30;;;9.40;84.90;;;;;;4979160;28;20050;-91
2023/10/23 03:07:27;;;;;;;8.60;3.53;;;9.40;84.90;;;;;;4990096;28;20050;-91
2023/10/23 03:09:54;;;;;;;7.95;3.45;;;9.40;84.90;;;;;;4990810;28;20134;-92
2023/10/23 03:12:21;;;;;;;8.07;3.22;;;9.40;84.80;;;;;;4990696;28;20101;-91
2023/10/23 03:14:49;;;;;;;7.30;2.93;;;9.40;84.80;;;;;;4984182;28;20035;-92
2023/10/23 03:17:16;;;;;;;8.15;3.17;;;9.40;84.80;;;;;;4987560;28;20407;-91
2023/10/23 03:19:43;;;;;;;8.05;2.75;;;9.40;84.90;;;;;;4988002;28;20034;-92
2023/10/23 03:22:10;;;;;;;6.65;2.53;;;9.40;84.90;;;;;;4984710;28;20061;-91
2023/10/23 03:24:38;;;;;;;7.47;2.90;;;9.40;84.80;;;;;;4973989;28;20130;-91
2023/10/23 03:27:05;;;;;;;8.03;3.27;;;9.40;84.90;;;;;;4987931;28;20522;-91
2023/10/23 03:29:32;;;;;;;7.15;2.65;;;9.40;84.90;;;;;;4979329;28;20046;-92
2023/10/23 03:31:59;;;;;;;6.82;2.75;;;9.40;84.90;;;;;;4985749;28;20062;-92
2023/10/23 03:34:26;;;;;;;8.18;3.08;;;9.40;85.00;;;;;;4971330;28;20081;-91
2023/10/23 03:36:53;;;;;;;8.35;3.03;;;9.40;84.90;;;;;;4971061;28;20381;-92
2023/10/23 03:39:20;;;;;;;8.13;3.20;;;9.40;84.90;;;;;;4979219;28;20070;-91
2023/10/23 03:41:47;;;;;;;7.45;2.90;;;9.40;84.90;;;;;;4994156;28;20050;-92
2023/10/23 03:44:14;;;;;;;7.80;2.80;;;9.50;84.70;;;;;;4987086;28;20042;-92
2023/10/23 03:46:41;;;;;;;7.22;2.65;;;9.40;84.70;;;;;;4967845;28;20325;-91
2023/10/23 03:49:10;;;;;;;8.15;3.00;;;9.40;84.70;;;;;;4979390;28;20101;-92
2023/10/23 03:51:37;;;;;;;10.33;2.70;;;9.40;84.80;;;;;;4970813;28;20054;-91
2023/10/23 03:54:05;;;;;;;7.88;2.72;;;9.40;84.80;;;;;;4978657;28;20046;-91
2023/10/23 03:56:32;;;;;;;6.22;2.38;;;9.40;84.80;;;;;;4977210;28;20042;-91
2023/10/23 03:59:00;;;;;;;6.78;2.40;;;9.30;84.80;;;;;;4970651;28;20101;-90
2023/10/23 04:01:27;;;;;;;7.10;2.28;;;9.30;84.90;;;;;;4988172;28;20057;-90
2023/10/23 04:03:54;;;;;;;6.97;2.90;;;9.30;84.80;;;;;;4975111;28;20512;-90
2023/10/23 04:06:22;;;;;;;6.22;2.67;;;9.40;84.70;;;;;;4979010;28;20046;-91
2023/10/23 04:08:52;;;;;;;6.53;2.17;;;9.40;84.60;;;;;;4975596;28;20133;-91
2023/10/23 04:11:20;;;;;;;6.95;2.83;;;9.40;84.60;;;;;;4979944;28;20054;-91
2023/10/23 04:13:47;;;;;;;6.35;2.40;;;9.30;84.60;;;;;;4981510;28;20039;-90
2023/10/23 04:16:15;;;;;;;6.60;2.30;;;9.30;84.80;;;;;;4991304;28;20042;-92
2023/10/23 04:18:43;;;;;;;6.55;2.50;;;9.30;85.00;;;;;;4978475;28;20034;-91
2023/10/23 04:21:11;;;;;;;6.28;2.50;;;9.30;84.80;;;;;;4986250;28;20046;-91
2023/10/23 04:23:39;;;;;;;7.47;2.90;;;9.30;84.80;;;;;;4968790;28;20050;-91
2023/10/23 04:26:07;;;;;;;7.30;3.00;;;9.30;84.90;;;;;;4979543;28;20116;-91
2023/10/23 04:28:36;;;;;;;9.17;3.23;;;9.20;85.00;;;;;;4977103;28;20106;-91
2023/10/23 04:31:04;;;;;;;8.82;3.10;;;9.40;84.90;;;;;;4983650;28;20407;-91
2023/10/23 04:33:31;;;;;;;8.15;3.90;;;9.40;84.90;;;;;;4983492;28;20054;-91
2023/10/23 04:35:59;;;;;;;10.20;3.85;;;9.40;84.60;;;;;;4978353;28;20064;-91
2023/10/23 04:38:27;;;;;;;7.18;2.92;;;9.50;84.50;;;;;;4990886;28;20038;-91
2023/10/23 04:40:54;;;;;;;8.67;2.63;;;9.50;84.40;;;;;;4985910;28;20053;-91
2023/10/23 04:43:21;;;;;;;8.88;2.88;;;9.50;84.40;;;;;;4990322;28;20053;-91
2023/10/23 04:45:49;;;;;;;8.77;3.22;;;9.40;84.40;;;;;;4991263;28;20073;-91
2023/10/23 04:48:16;;;;;;;6.88;2.60;;;9.50;84.60;;;;;;4985990;28;20503;-91
2023/10/23 04:50:43;;;;;;;8.35;3.08;;;9.50;84.60;;;;;;4987429;28;20052;-89
2023/10/23 04:53:10;;;;;;;8.07;2.90;;;9.50;84.60;;;;;;4983924;28;20049;-89
2023/10/23 04:55:39;;;;;;;8.10;2.75;;;9.50;84.40;;;;;;4974487;28;20042;-89
2023/10/23 04:58:07;;;;;;;7.25;2.70;;;9.50;84.30;;;;;;4995701;28;20373;-89
2023/10/23 05:00:41;;;;;;;7.10;2.72;;;9.60;84.10;;;;;;4974171;28;20510;-89
2023/10/23 05:03:08;;;;;;;8.27;3.20;;;9.50;84.20;;;;;;4980132;28;20431;-89
2023/10/23 05:05:36;;;;;;;9.50;3.30;;;9.50;84.20;;;;;;4972095;28;20046;-90
2023/10/23 05:08:04;;;;;;;8.70;3.38;;;9.50;84.30;;;;;;4985041;28;20096;-89
2023/10/23 05:10:31;;;;;;;7.43;3.00;;;9.50;84.40;;;;;;4979521;28;20097;-89
2023/10/23 05:29:36;;;;;;;7.97;3.05;;;9.50;84.40;;;;;;4990720;23;20436;-89
2023/10/23 05:32:04;;;;;;;7.85;2.80;;;9.50;84.60;;;;;;4957798;28;20057;-90
2023/10/23 05:34:32;;;;;;;8.53;3.30;;;9.40;84.60;;;;;;4958174;28;20044;-90
2023/10/23 05:36:59;;;;;;;7.60;2.85;;;9.50;84.50;;;;;;4959292;28;20050;-91
2023/10/23 05:39:27;;;;;;;8.40;2.95;;;9.50;84.50;;;;;;4942591;28;20046;-90
2023/10/23 05:41:54;;;;;;;7.28;2.90;;;9.50;84.30;;;;;;4958070;28;20043;-91
2023/10/23 05:44:22;;;;;;;8.43;3.53;;;9.50;84.30;;;;;;4967706;28;20061;-91
2023/10/23 05:46:49;;;;;;;7.90;2.87;;;9.50;84.40;;;;;;4971241;28;20071;-90
2023/10/23 05:49:16;;;;;;;7.40;3.45;;;9.50;84.50;;;;;;4962191;28;20492;-91
2023/10/23 05:51:44;;;;;;;7.53;3.05;;;9.50;84.60;;;;;;4962031;28;20089;-91
2023/10/23 05:54:11;;;;;;;7.93;3.05;;;9.50;84.60;;;;;;4961490;28;20042;-91
2023/10/23 05:56:38;;;;;;;7.93;3.20;;;9.50;84.60;;;;;;4962125;28;20085;-91
2023/10/23 05:59:05;;;;;;;9.10;2.90;;;9.60;84.60;;;;;;4942673;29;20047;-90
2023/10/23 06:01:32;;;;;;;7.40;3.03;;;9.70;84.40;;;;;;4956474;29;20071;-91
2023/10/23 06:03:59;;;;;;;8.63;3.08;;;9.70;84.40;;;;;;4942664;29;20047;-90
2023/10/23 06:06:26;;;;;;;7.93;3.03;;;9.70;84.20;;;;;;4927331;29;20145;-92
2023/10/23 06:08:53;;;;;;;10.15;2.90;;;9.70;84.30;;;;;;4942663;29;20449;-91
2023/10/23 06:11:21;;;;;;;8.10;3.13;;;9.70;84.40;;;;;;4942909;29;20106;-92
2023/10/23 06:13:48;;;;;;;7.38;2.75;;;9.70;84.20;;;;;;4943143;29;20102;-91
2023/10/23 06:16:15;;;;;;;7.38;2.80;;;9.70;84.40;;;;;;4942841;29;20071;-92
2023/10/23 06:18:42;;;;;;;7.20;2.75;;;9.60;84.50;;;;;;4942503;29;20047;-93
2023/10/23 06:21:09;;;;;;;8.35;3.15;;;9.70;84.20;;;;;;4942666;29;20138;-91
2023/10/23 06:23:38;;;;;;;7.70;2.80;;;9.70;84.40;;;;;;4943415;29;20130;-92
2023/10/23 06:26:07;;;;;;;7.72;2.47;;;9.70;84.40;;;;;;4942175;29;20575;-92
2023/10/23 06:28:35;;;;;;;6.32;2.42;;;9.80;84.20;;;;;;4942335;29;20456;-92
2023/10/23 06:31:06;;;;;;;6.65;2.47;;;9.80;84.10;;;;;;4942619;29;20082;-92
2023/10/23 06:33:35;;;;;;;7.97;2.67;;;9.80;84.20;;;;;;4926561;29;20047;-91
2023/10/23 06:36:09;;;;;;;7.73;2.60;;;9.80;84.20;;;;;;4942399;29;20043;-91
2023/10/23 06:38:37;;;;;;;7.55;2.50;;;9.80;84.20;;;;;;4942144;29;20089;-90
2023/10/23 06:41:05;;;;;;;6.97;2.67;;;9.80;84.40;;;;;;4942237;29;20067;-93
2023/10/23 06:43:34;;;;;;;6.82;2.60;;;9.80;84.50;;;;;;4942117;29;20090;-91
2023/10/23 06:46:01;;;;;;;7.18;2.70;;;9.80;84.30;;;;;;4942118;29;20055;-91
2023/10/23 06:48:31;;;;;;;7.80;2.73;;;9.90;84.30;;;;;;4941984;29;20047;-92
2023/10/23 06:50:59;;;;;;;8.98;2.60;;;9.90;84.40;;;;;;4941861;29;20053;-90
2023/10/23 06:53:26;;;;;;;7.45;3.08;;;10.00;84.20;;;;;;4941679;29;20090;-92
2023/10/23 06:55:55;;;;;;;7.20;2.45;;;10.00;84.00;;;;;;4941190;29;20501;-92
2023/10/23 06:58:22;;;;;;;7.70;2.40;;;10.00;83.90;;;;;;4942540;29;20051;-93
2023/10/23 07:00:50;;;;;;;6.33;2.27;;;10.10;83.90;;;;;;4941922;29;20051;-92
2023/10/23 07:03:17;;;;;;;7.57;2.75;;;10.20;83.80;;;;;;4942007;29;20047;-90
2023/10/23 07:05:44;;;;;;;7.30;2.95;;;10.30;83.30;;;;;;4942143;29;20513;-93
2023/10/23 07:08:13;;;;;;;6.45;2.85;;;10.30;83.40;;;;;;4947571;29;20133;-95
2023/10/23 07:10:57;;;;;;;7.15;2.67;;;10.30;83.40;;;;;;4931056;29;20047;-93
2023/10/23 07:13:24;;;;;;;8.23;3.20;;;10.30;83.20;;;;;;4942389;29;20051;-94
2023/10/23 07:15:52;;;;;;;7.68;2.95;;;10.30;83.70;;;;;;4943014;29;20110;-94
2023/10/23 07:18:23;;;;;;;8.00;3.33;;;10.30;83.50;;;;;;4944609;29;20054;-96
2023/10/23 07:21:02;;;;;;;7.68;3.33;;;10.30;83.80;;;;;;5073766;23;20055;-94
2023/10/23 07:23:31;;;;;;;7.63;3.00;;;10.30;83.70;;;;;;4977709;28;20046;-95
2023/10/23 07:26:16;;;;;;;6.33;2.57;;;10.30;83.50;;;;;;4977452;28;20047;-94
2023/10/23 07:28:43;;;;;;;7.40;2.95;;;10.30;83.70;;;;;;4961937;28;20496;-93
2023/10/23 07:31:12;;;;;;;6.90;3.08;;;10.40;83.60;;;;;;4960833;28;20070;-94
2023/10/23 07:33:39;;;;;;;7.28;3.08;;;10.50;83.80;;;;;;4960826;28;20047;-94
2023/10/23 07:36:09;;;;;;;9.05;3.40;;;10.50;83.60;;;;;;4960855;28;20137;-91
2023/10/23 07:38:41;;;;;;;6.57;2.90;;;10.50;83.30;;;;;;4960980;28;20134;-91
2023/10/23 07:41:09;;;;;;;7.65;3.10;;;10.50;83.20;;;;;;4957367;29;20047;-94
2023/10/23 07:43:54;;;;;;;6.90;3.00;;;10.50;83.10;;;;;;4941992;29;20121;-95
2023/10/23 07:49:21;;;;;;;7.10;2.63;;;10.50;83.30;;;;;;4961995;29;20130;-95
2023/10/23 07:51:48;;;;;;;6.80;2.47;;;10.60;83.20;;;;;;4929626;29;20054;-95
2023/10/23 07:54:16;;;;;;;8.57;2.88;;;10.70;83.20;;;;;;4955798;29;20048;-94
2023/10/23 07:56:46;;;;;;;6.03;2.58;;;10.80;83.20;;;;;;4953727;29;20051;-95
2023/10/23 07:59:13;;;;;;;6.32;2.55;;;10.90;83.10;;;;;;4954625;29;20102;-94
2023/10/23 08:01:40;;;;;;;6.57;2.88;;;11.00;82.80;;;;;;4937691;29;20543;-95
2023/10/23 08:04:08;;;;;;;7.87;3.33;;;11.00;82.80;;;;;;4953686;29;20055;-96
2023/10/23 08:06:38;;;;;;;7.65;3.30;;;11.10;82.30;;;;;;4952345;28;20066;-95
2023/10/23 08:09:06;;;;;;;11.18;3.35;;;11.20;82.20;;;;;;4921868;29;20048;-94
2023/10/23 08:11:33;;;;;;;7.65;2.80;;;11.30;82.20;;;;;;4953216;29;20169;-95
2023/10/23 08:14:00;;;;;;;7.82;2.95;;;11.30;82.30;;;;;;4953336;29;20044;-94
2023/10/23 08:16:28;;;;;;;8.57;2.77;;;11.40;82.00;;;;;;4953619;29;20044;-94
2023/10/23 08:18:57;;;;;;;6.30;3.17;;;11.40;81.70;;;;;;4953413;29;20063;-95
2023/10/23 08:21:28;;;;;;;8.65;3.25;;;11.50;81.80;;;;;;4953022;29;20378;-95
2023/10/23 08:23:56;;;;;;;7.18;3.05;;;11.50;81.30;;;;;;4937296;29;20103;-95
2023/10/23 08:26:24;;;;;;;7.82;3.03;;;11.50;81.80;;;;;;4952979;29;20052;-95
2023/10/23 08:28:53;;;;;;;8.47;3.20;;;11.60;81.90;;;;;;4953116;29;20569;-96
2023/10/23 08:31:29;;;;;;;6.20;2.78;;;11.70;81.60;;;;;;4952718;29;20052;-95
2023/10/23 08:33:59;;;;;;;6.20;2.40;;;11.80;81.20;;;;;;4952603;29;20083;-94
2023/10/23 08:36:27;;;;;;;7.82;2.30;;;12.00;81.20;;;;;;4936647;29;20075;-95
2023/10/23 08:38:54;;;;;;;9.57;2.30;;;12.00;81.30;;;;;;4952765;29;20043;-95
2023/10/23 08:41:22;;;;;;;7.23;2.40;;;12.20;80.50;;;;;;4952647;29;20082;-95
2023/10/23 08:43:49;;;;;;;7.20;2.60;;;12.30;80.10;;;;;;4953204;29;20070;-94
2023/10/23 08:46:17;;;;;;;7.13;2.42;;;12.40;80.00;;;;;;4952651;29;20125;-94
2023/10/23 08:48:44;;;;;;;6.32;2.25;;;12.50;79.50;;;;;;4952858;28;20150;-94
2023/10/23 08:51:12;;;;;;;9.68;3.55;;;12.60;79.10;;;;;;4952221;29;20151;-95
2023/10/23 08:53:54;;;;;;;6.73;2.00;;;12.70;78.30;;;;;;4936477;29;20556;-95
2023/10/23 08:56:37;;;;;;;6.00;1.95;;;12.80;78.80;;;;;;4954238;29;20103;-95
2023/10/23 08:59:08;;;;;;;7.53;2.55;;;13.00;78.50;;;;;;4952901;29;20090;-93
2023/10/23 09:01:35;;;;;;;7.78;2.70;;;13.10;78.50;;;;;;4951904;29;20035;-91
2023/10/23 09:04:10;;;;;;;7.28;2.15;;;13.20;78.30;;;;;;4925059;29;20052;-96
2023/10/23 09:06:55;;;;;;;7.57;2.60;;;13.20;76.70;;;;;;5015411;23;20047;-96
2023/10/23 09:13:59;;;;;;;9.73;2.53;;;13.50;77.00;;;;;;4938477;29;20048;-95
2023/10/23 09:25:10;;;;;;;5.43;1.90;;;13.80;75.00;;;;;;4991699;28;20067;-95
2023/10/23 09:27:49;;;;;;;5.72;1.52;;;13.90;74.10;;;;;;4961126;28;20074;-96
2023/10/23 09:30:27;;;;;;;5.50;1.70;;;14.00;73.80;;;;;;4959503;28;20070;-96
2023/10/23 09:32:59;;;;;;;9.45;2.22;;;14.10;73.60;;;;;;4958715;28;20047;-95
2023/10/23 09:35:29;;;;;;;4.50;1.50;;;14.10;72.60;;;;;;4958049;28;20058;-95
2023/10/23 09:38:13;;;;;;;6.10;1.73;;;14.20;73.00;;;;;;4974726;28;20046;-96
2023/10/23 09:41:00;;;;;;;7.60;1.90;;;14.30;72.80;;;;;;4960735;28;20039;-95
2023/10/23 09:43:42;;;;;;;4.10;1.52;;;14.40;72.30;;;;;;4966586;28;20051;-95
2023/10/23 09:46:11;;;;;;;6.38;1.50;;;14.40;71.70;;;;;;4950913;28;20051;-95
2023/10/23 09:48:50;;;;;;;7.10;1.70;;;14.50;71.50;;;;;;4970398;28;20078;-96
2023/10/23 09:51:36;;;;;;;5.67;1.80;;;14.50;71.10;;;;;;4950754;28;20047;-95
2023/10/23 09:54:09;;;;;;;5.55;1.60;;;14.50;69.70;;;;;;4957062;28;20050;-95
2023/10/23 09:56:41;;;;;;;5.38;1.77;;;14.60;70.40;;;;;;4991582;28;20452;-95
2023/10/23 09:59:15;;;;;;;8.07;2.10;;;14.70;71.40;;;;;;4978204;28;20066;-96
2023/10/23 10:01:48;;;;;;;5.72;1.75;;;14.80;71.10;;;;;;4990310;28;20113;-96
2023/10/23 10:04:32;;;;;;;6.63;2.00;;;14.90;69.60;;;;;;4977684;28;20182;-96
2023/10/23 10:07:08;;;;;;;7.80;1.75;;;14.90;70.50;;;;;;4993739;28;20070;-96
2023/10/23 10:09:53;;;;;;;7.55;1.92;;;15.00;70.20;;;;;;4994334;28;20073;-96
2023/10/23 10:12:35;;;;;;;8.70;2.22;;;15.00;69.10;;;;;;4993927;28;20050;-96
2023/10/23 10:15:09;;;;;;;12.05;2.70;;;15.10;69.20;;;;;;4995978;28;20074;-94
2023/10/23 10:17:45;;;;;;;12.70;3.50;;;15.20;69.20;;;;;;4978318;28;20141;-95
2023/10/23 10:20:24;;;;;;;9.80;2.55;;;15.30;68.80;;;;;;5011858;28;20074;-96
2023/10/23 10:23:09;;;;;;;10.45;2.42;;;15.30;66.70;;;;;;4972572;29;20054;-96
2023/10/23 10:25:53;;;;;;;8.05;2.35;;;15.40;67.30;;;;;;4975610;29;20047;-96
2023/10/23 10:32:34;;;;;;;10.70;1.70;;;15.50;64.90;;;;;;4978195;29;20062;-96
2023/10/23 10:35:35;;;;;;;7.75;1.60;;;15.50;64.80;;;;;;4974160;29;20055;-96
2023/10/23 10:38:17;;;;;;;9.82;3.40;;;15.60;65.60;;;;;;4976498;29;20043;-96
2023/10/23 10:41:21;;;;;;;11.13;3.00;;;15.70;64.10;;;;;;4973752;28;20051;-95
2023/10/23 10:44:00;;;;;;;10.40;3.63;;;15.80;63.80;;;;;;4972561;28;20083;-96
2023/10/23 10:46:32;;;;;;;12.17;3.00;;;15.80;63.40;;;;;;4988283;28;20086;-95
2023/10/23 10:49:09;;;;;;;5.93;1.88;;;15.80;62.50;;;;;;4958373;29;20070;-95
2023/10/23 10:51:43;;;;;;;8.88;3.08;;;15.90;63.20;;;;;;4972359;29;20067;-96
2023/10/23 10:54:15;;;;;;;11.40;5.28;;;16.00;64.20;;;;;;4956779;29;20054;-96
2023/10/23 10:56:47;;;;;;;4.60;1.23;;;16.10;63.60;;;;;;4969193;28;20073;-96
2023/10/23 10:59:23;;;;;;;3.17;1.10;;;16.10;61.40;;;;;;4973841;28;20047;-96
2023/10/23 11:02:05;;;;;;;9.13;4.90;;;16.10;62.90;;;;;;4945850;29;20047;-95
2023/10/23 11:04:37;;;;;;;5.80;1.40;;;16.20;60.40;;;;;;4965887;29;20079;-95
2023/10/23 11:07:08;;;;;;;6.93;2.30;;;16.20;57.90;;;;;;4986353;28;20083;-95
2023/10/23 11:09:45;;;;;;;6.38;2.15;;;16.20;59.00;;;;;;4972365;29;20061;-96
2023/10/23 11:12:17;;;;;;;4.13;1.07;;;16.30;57.40;;;;;;4971240;29;20043;-96
2023/10/23 11:14:50;;;;;;;7.35;2.88;;;16.40;58.10;;;;;;4990932;28;20047;-96
2023/10/23 11:17:26;;;;;;;4.93;1.10;;;16.50;58.40;;;;;;4976598;28;20051;-96
2023/10/23 11:20:13;;;;;;;4.97;1.38;;;16.60;59.00;;;;;;4975800;29;20067;-96
2023/10/23 11:22:47;;;;;;;5.57;1.20;;;16.70;59.20;;;;;;4970597;28;20055;-95
2023/10/23 11:25:20;;;;;;;4.23;1.33;;;16.70;56.90;;;;;;4995423;28;20046;-96
2023/10/23 11:27:57;;;;;;;6.13;1.48;;;16.70;58.10;;;;;;4990563;28;20054;-96
2023/10/23 11:30:50;;;;;;;4.85;1.42;;;16.80;56.50;;;;;;4974342;28;20054;-95
2023/10/23 11:33:22;;;;;;;5.18;1.58;;;16.80;56.60;;;;;;4990325;28;20050;-96
2023/10/23 11:35:53;;;;;;;5.63;1.20;;;16.80;58.40;;;;;;4984673;28;20050;-96
2023/10/23 11:38:24;;;;;;;7.40;1.20;;;16.90;58.00;;;;;;4970935;28;20057;-96
2023/10/23 11:40:54;;;;;;;6.00;1.40;;;16.90;58.70;;;;;;4968192;28;20134;-95
2023/10/23 11:43:22;;;;;;;5.90;1.27;;;17.00;58.00;;;;;;4967228;28;20046;-96
2023/10/23 11:45:50;;;;;;;4.93;1.08;;;17.00;57.10;;;;;;4983261;28;20504;-95
2023/10/23 11:48:18;;;;;;;4.32;1.60;;;17.00;56.80;;;;;;4968272;28;20051;-96
2023/10/23 11:50:46;;;;;;;9.17;1.37;;;17.10;56.00;;;;;;4986990;28;20047;-96
2023/10/23 11:53:16;;;;;;;6.15;1.50;;;17.10;56.20;;;;;;4969493;28;20047;-95
2023/10/23 11:55:45;;;;;;;5.68;1.10;;;17.10;55.20;;;;;;4971680;28;20069;-96
2023/10/23 11:58:29;;;;;;;4.50;1.13;;;17.20;56.20;;;;;;4972133;28;20051;-95
2023/10/23 12:00:57;;;;;;;5.90;1.20;;;17.30;55.40;;;;;;4970154;28;20050;-95
2023/10/23 12:03:31;;;;;;;3.67;1.10;;;17.20;54.90;;;;;;5001770;28;20046;-96
2023/10/23 12:06:03;;;;;;;5.22;1.45;;;17.20;55.20;;;;;;4987758;28;20082;-95
2023/10/23 12:08:31;;;;;;;5.72;1.40;;;17.30;55.30;;;;;;4968125;28;20061;-96
2023/10/23 12:10:59;;;;;;;6.60;2.03;;;17.30;56.10;;;;;;4967640;28;20050;-94
2023/10/23 12:13:26;;;;;;;4.78;1.08;;;17.20;56.10;;;;;;4983037;28;20133;-96
2023/10/23 12:15:54;;;;;;;6.00;1.07;;;17.20;54.70;;;;;;4965455;28;20043;-95
2023/10/23 12:18:26;;;;;;;5.32;1.90;;;17.30;55.20;;;;;;4965293;28;20150;-96
2023/10/23 12:20:53;;;;;;;4.82;1.27;;;17.30;54.80;;;;;;4965314;28;20046;-96
2023/10/23 12:23:25;;;;;;;4.72;1.00;;;17.20;54.60;;;;;;4972323;28;20051;-96
2023/10/23 12:25:54;;;;;;;4.88;1.27;;;17.20;55.80;;;;;;4987988;28;20050;-96
2023/10/23 12:28:26;;;;;;;3.70;1.10;;;17.20;55.60;;;;;;4988144;28;20146;-96
2023/10/23 12:30:56;;;;;;;5.25;1.30;;;17.20;55.40;;;;;;4985514;28;20053;-96
2023/10/23 12:33:24;;;;;;;4.68;1.00;;;17.20;54.90;;;;;;4971778;28;20522;-94
2023/10/23 12:36:04;;;;;;;5.45;0.93;;;17.20;55.20;;;;;;4987722;28;20046;-96
2023/10/23 12:38:35;;;;;;;4.32;0.98;;;17.30;55.80;;;;;;4972132;28;20070;-90
2023/10/23 12:41:04;;;;;;;5.27;1.10;;;17.30;56.50;;;;;;4970249;28;20046;-90
2023/10/23 12:43:31;;;;;;;4.95;0.93;;;17.30;56.00;;;;;;4967861;28;20043;-89
2023/10/23 12:46:00;;;;;;;4.03;1.13;;;17.40;56.10;;;;;;4959831;28;20386;-89
2023/10/23 12:48:30;;;;;;;4.57;1.10;;;17.50;56.00;;;;;;4971821;28;20046;-89
2023/10/23 12:50:58;;;;;;;5.65;1.38;;;17.50;55.80;;;;;;4978208;28;20141;-89
2023/10/23 12:53:25;;;;;;;4.77;1.00;;;17.60;55.20;;;;;;4965735;28;20047;-90
2023/10/23 12:55:52;;;;;;;7.80;1.25;;;17.60;55.60;;;;;;4970866;28;20052;-90
2023/10/23 12:58:19;;;;;;;2.72;1.00;;;17.70;56.90;;;;;;4959130;28;20066;-90
2023/10/23 13:01:05;;;;;;;3.67;1.00;;;17.70;54.20;;;;;;4966665;28;20050;-90
2023/10/23 13:03:33;;;;;;;3.95;1.33;;;17.60;54.40;;;;;;4964692;28;20042;-89
2023/10/23 13:06:03;;;;;;;4.33;1.27;;;17.70;54.10;;;;;;4960934;28;20050;-90
2023/10/23 13:08:31;;;;;;;4.20;0.95;;;17.70;53.90;;;;;;4956657;28;20492;-90
2023/10/23 13:11:01;;;;;;;3.63;1.20;;;17.70;53.50;;;;;;4965348;28;20046;-90
2023/10/23 13:13:28;;;;;;;4.22;1.25;;;17.70;54.20;;;;;;4971875;28;20054;-90
2023/10/23 13:15:55;;;;;;;3.67;0.95;;;17.70;54.80;;;;;;4966886;28;20070;-90
2023/10/23 13:18:23;;;;;;;5.07;1.20;;;17.80;55.40;;;;;;4978186;28;20050;-90
2023/10/23 13:20:50;;;;;;;4.28;1.27;;;17.80;54.90;;;;;;4973389;28;20408;-91
2023/10/23 13:23:40;;;;;;;4.57;1.25;;;17.80;54.10;;;;;;4962437;28;20065;-89
2023/10/23 13:26:07;;;;;;;6.05;1.30;;;17.80;54.70;;;;;;4975064;28;20042;-89
2023/10/23 13:28:40;;;;;;;4.22;1.15;;;17.90;54.80;;;;;;4971668;28;20042;-90
2023/10/23 13:31:07;;;;;;;3.93;1.10;;;17.90;53.40;;;;;;4975589;28;20054;-90
2023/10/23 13:33:35;;;;;;;4.68;1.10;;;17.90;55.10;;;;;;4972604;28;20048;-90
2023/10/23 13:36:07;;;;;;;8.55;2.00;;;17.90;55.90;;;;;;4964209;28;20047;-90
2023/10/23 13:38:35;;;;;;;11.98;2.63;;;17.90;55.10;;;;;;4970390;28;20129;-90
2023/10/23 13:41:05;;;;;;;10.73;2.08;;;17.90;55.60;;;;;;4977946;28;20408;-89
2023/10/23 13:43:33;;;;;;;7.00;1.70;;;17.80;55.70;;;;;;4961627;28;20431;-90
2023/10/23 13:46:01;;;;;;;4.00;1.10;;;17.80;55.00;;;;;;4963209;28;20078;-90